createdAt,value
2017-09-19T00:00:02.483Z,99.90
2017-09-19T00:02:30.746Z,99.90
2017-09-19T00:04:59.796Z,99.90
2017-09-19T00:07:27.283Z,99.90
2017-09-19T00:09:54.982Z,99.90
2017-09-19T00:12:23.481Z,99.90
2017-09-19T00:14:50.991Z,99.90
2017-09-19T00:17:18.890Z,99.90
2017-09-19T00:19:46.403Z,99.90
2017-09-19T00:22:13.898Z,99.90
2017-09-19T00:24:42.187Z,99.90
2017-09-19T00:27:09.687Z,99.90
2017-09-19T00:29:37.795Z,99.90
2017-09-19T00:32:06.079Z,99.90
2017-09-19T00:34:34.342Z,99.90
2017-09-19T00:37:02.626Z,99.90
2017-09-19T00:39:30.919Z,99.90
2017-09-19T00:41:58.551Z,99.90
2017-09-19T00:44:26.134Z,99.90
2017-09-19T00:46:53.646Z,99.90
2017-09-19T00:49:21.142Z,99.90
2017-09-19T00:51:49.426Z,99.90
2017-09-19T00:54:16.991Z,99.90
2017-09-19T00:56:44.512Z,99.90
2017-09-19T00:59:12.018Z,99.90
2017-09-19T01:01:39.531Z,99.90
2017-09-19T01:04:07.027Z,99.90
2017-09-19T01:06:34.570Z,99.90
2017-09-19T01:09:02.839Z,99.90
2017-09-19T01:11:31.191Z,99.90
2017-09-19T01:13:58.795Z,99.90
2017-09-19T01:16:26.306Z,99.90
2017-09-19T01:18:53.806Z,99.90
2017-09-19T01:21:21.303Z,99.90
2017-09-19T01:23:48.922Z,99.90
2017-09-19T01:26:16.424Z,99.90
2017-09-19T01:28:43.947Z,99.90
2017-09-19T01:31:11.508Z,99.90
2017-09-19T01:33:39.027Z,99.90
2017-09-19T01:36:07.339Z,99.90
2017-09-19T01:38:34.894Z,99.90
2017-09-19T01:41:02.523Z,99.90
2017-09-19T01:43:30.042Z,99.90
2017-09-19T01:45:57.566Z,99.90
2017-09-19T01:48:25.078Z,99.90
2017-09-19T01:50:52.579Z,99.90
2017-09-19T01:53:20.866Z,99.90
2017-09-19T01:55:48.371Z,99.90
2017-09-19T01:58:15.889Z,99.90
2017-09-19T02:00:44.206Z,99.90
2017-09-19T02:03:11.814Z,99.90
2017-09-19T02:05:40.431Z,99.90
2017-09-19T02:08:07.934Z,99.90
2017-09-19T02:10:36.198Z,99.90
2017-09-19T02:13:03.743Z,99.90
2017-09-19T02:15:32.007Z,99.90
2017-09-19T02:17:59.606Z,99.90
2017-09-19T02:20:27.907Z,99.90
2017-09-19T02:22:55.406Z,99.90
2017-09-19T02:25:22.925Z,99.90
2017-09-19T02:27:50.422Z,99.90
2017-09-19T02:30:17.934Z,99.90
2017-09-19T02:32:45.435Z,99.90
2017-09-19T02:35:12.955Z,99.90
2017-09-19T02:37:40.455Z,99.90
2017-09-19T02:40:07.966Z,99.90
2017-09-19T02:42:35.523Z,99.90
2017-09-19T02:45:03.048Z,99.90
2017-09-19T02:47:31.319Z,99.90
2017-09-19T02:49:58.839Z,99.90
2017-09-19T02:52:26.348Z,99.90
2017-09-19T02:54:54.630Z,99.90
2017-09-19T02:57:22.923Z,99.90
2017-09-19T02:59:50.478Z,99.90
2017-09-19T03:02:18.739Z,99.90
2017-09-19T03:04:47.035Z,99.90
2017-09-19T03:07:15.334Z,99.90
2017-09-19T03:09:42.971Z,99.90
2017-09-19T03:12:10.470Z,99.90
2017-09-19T03:14:38.086Z,99.90
2017-09-19T03:17:05.587Z,99.90
2017-09-19T03:19:33.098Z,99.90
2017-09-19T03:22:01.363Z,99.90
2017-09-19T03:24:29.646Z,99.90
2017-09-19T03:26:58.010Z,99.90
2017-09-19T03:29:26.310Z,99.90
2017-09-19T03:31:53.806Z,99.90
2017-09-19T03:34:21.322Z,99.90
2017-09-19T03:36:48.823Z,99.90
2017-09-19T03:39:16.338Z,99.90
2017-09-19T03:41:43.894Z,99.90
2017-09-19T03:44:11.396Z,99.90
2017-09-19T03:46:38.916Z,99.90
2017-09-19T03:49:06.475Z,99.90
2017-09-19T03:51:34.000Z,99.90
2017-09-19T03:54:02.270Z,99.90
2017-09-19T03:56:29.786Z,99.90
2017-09-19T03:58:57.291Z,99.90
2017-09-19T04:01:24.803Z,99.90
2017-09-19T04:03:52.306Z,99.90
2017-09-19T04:06:19.820Z,99.90
2017-09-19T04:08:47.326Z,99.90
2017-09-19T04:11:15.602Z,99.90
2017-09-19T04:13:43.231Z,99.90
2017-09-19T04:16:10.755Z,99.90
2017-09-19T04:18:38.255Z,99.90
2017-09-19T04:21:05.780Z,99.90
2017-09-19T04:23:34.140Z,99.90
2017-09-19T04:26:01.675Z,99.90
2017-09-19T04:28:29.170Z,99.90
2017-09-19T04:30:56.662Z,99.90
2017-09-19T04:33:24.176Z,99.90
2017-09-19T04:35:51.706Z,99.90
2017-09-19T04:38:19.217Z,99.90
2017-09-19T04:40:46.713Z,99.90
2017-09-19T04:43:14.426Z,99.90
2017-09-19T04:45:41.928Z,99.90
2017-09-19T04:48:09.442Z,99.90
2017-09-19T04:50:36.947Z,99.90
2017-09-19T04:53:05.215Z,99.90
2017-09-19T04:55:32.714Z,99.90
2017-09-19T04:58:00.231Z,99.90
2017-09-19T05:00:27.831Z,99.90
2017-09-19T05:02:55.982Z,99.90
2017-09-19T05:05:23.483Z,99.90
2017-09-19T05:07:51.003Z,99.90
2017-09-19T05:10:19.262Z,99.90
2017-09-19T05:12:46.888Z,99.90
2017-09-19T05:15:14.392Z,99.90
2017-09-19T05:17:42.698Z,99.90
2017-09-19T05:20:10.195Z,99.90
2017-09-19T05:22:37.711Z,99.90
2017-09-19T05:25:05.211Z,99.90
2017-09-19T05:27:32.827Z,99.90
2017-09-19T05:30:00.327Z,99.90
2017-09-19T05:32:27.842Z,99.90
2017-09-19T05:34:55.344Z,99.90
2017-09-19T05:37:22.866Z,99.90
2017-09-19T05:39:50.362Z,99.90
2017-09-19T05:42:18.799Z,99.90
2017-09-19T05:44:46.935Z,99.90
2017-09-19T05:47:14.442Z,99.90
2017-09-19T05:49:42.598Z,99.90
2017-09-19T05:52:10.103Z,99.90
2017-09-19T05:54:37.614Z,99.90
2017-09-19T05:57:05.111Z,99.90
2017-09-19T05:59:33.495Z,99.90
2017-09-19T06:02:00.994Z,99.90
2017-09-19T06:04:29.403Z,99.90
2017-09-19T06:06:56.898Z,99.90
2017-09-19T06:09:31.878Z,99.90
2017-09-19T06:11:59.379Z,99.90
2017-09-19T06:14:26.942Z,99.90
2017-09-19T06:16:54.443Z,99.90
2017-09-19T06:19:22.722Z,99.90
2017-09-19T06:21:50.223Z,99.90
2017-09-19T06:24:17.734Z,99.90
2017-09-19T06:26:45.999Z,99.90
2017-09-19T06:29:14.279Z,99.90
2017-09-19T06:31:42.567Z,99.90
2017-09-19T06:34:10.134Z,99.90
2017-09-19T06:36:37.641Z,99.90
2017-09-19T06:39:05.243Z,99.90
2017-09-19T06:41:32.742Z,99.90
2017-09-19T06:44:00.363Z,99.90
2017-09-19T06:46:27.875Z,99.90
2017-09-19T06:48:55.398Z,99.90
2017-09-19T06:51:22.894Z,99.90
2017-09-19T06:53:51.902Z,99.90
2017-09-19T06:56:19.495Z,99.90
2017-09-19T06:58:47.458Z,99.90
2017-09-19T07:01:15.327Z,99.90
2017-09-19T07:03:42.901Z,99.90
2017-09-19T07:06:10.418Z,99.90
2017-09-19T07:08:38.686Z,99.90
2017-09-19T07:11:06.282Z,99.90
2017-09-19T07:13:33.786Z,99.90
2017-09-19T07:16:01.308Z,99.90
2017-09-19T07:18:28.807Z,99.90
2017-09-19T07:20:56.326Z,99.60
2017-09-19T07:23:23.867Z,99.70
2017-09-19T07:25:51.380Z,99.90
2017-09-19T07:28:19.399Z,99.90
2017-09-19T07:30:46.915Z,99.90
2017-09-19T07:33:14.410Z,99.90
2017-09-19T07:35:41.927Z,99.90
2017-09-19T07:38:09.431Z,99.90
2017-09-19T07:40:36.947Z,99.90
2017-09-19T07:43:04.547Z,99.90
2017-09-19T07:45:32.062Z,99.90
2017-09-19T07:48:00.286Z,99.90
2017-09-19T07:50:27.848Z,99.90
2017-09-19T07:52:55.379Z,99.90
2017-09-19T07:55:23.642Z,99.90
2017-09-19T07:57:51.163Z,99.90
2017-09-19T08:00:18.668Z,99.90
2017-09-19T08:02:46.947Z,99.90
2017-09-19T08:05:15.210Z,99.90
2017-09-19T08:07:42.803Z,99.90
2017-09-19T08:10:10.320Z,99.90
2017-09-19T08:12:37.844Z,99.90
2017-09-19T08:15:05.367Z,99.90
2017-09-19T08:17:32.935Z,99.90
2017-09-19T08:20:00.496Z,99.90
2017-09-19T08:22:28.018Z,99.90
2017-09-19T08:24:55.524Z,99.90
2017-09-19T08:27:23.063Z,99.90
2017-09-19T08:29:50.626Z,99.90
2017-09-19T08:32:18.139Z,99.90
2017-09-19T08:34:45.748Z,99.90
2017-09-19T08:37:13.255Z,99.90
2017-09-19T08:39:40.778Z,99.90
2017-09-19T08:42:08.279Z,99.90
2017-09-19T08:44:35.875Z,99.90
2017-09-19T08:47:04.208Z,99.90
2017-09-19T08:49:31.732Z,99.90
2017-09-19T08:51:59.271Z,99.90
2017-09-19T08:54:26.795Z,99.90
2017-09-19T08:56:54.296Z,99.90
2017-09-19T08:59:22.040Z,99.90
2017-09-19T09:01:50.302Z,99.90
2017-09-19T09:04:18.582Z,99.90
2017-09-19T09:06:46.847Z,99.90
2017-09-19T09:09:15.173Z,99.30
2017-09-19T09:11:42.660Z,99.20
2017-09-19T09:14:10.225Z,99.90
2017-09-19T09:16:37.727Z,99.60
2017-09-19T09:19:05.282Z,99.50
2017-09-19T09:21:32.843Z,99.90
2017-09-19T09:24:00.404Z,99.90
2017-09-19T09:26:27.911Z,99.90
2017-09-19T09:28:55.427Z,99.10
2017-09-19T09:31:23.011Z,98.80
2017-09-19T09:33:50.524Z,98.20
2017-09-19T09:36:18.027Z,98.30
2017-09-19T09:38:45.535Z,99.20
2017-09-19T09:41:13.935Z,98.30
2017-09-19T09:43:42.019Z,98.30
2017-09-19T09:46:09.544Z,97.20
2017-09-19T09:48:37.811Z,96.50
2017-09-19T09:51:06.095Z,96.60
2017-09-19T09:53:34.372Z,97.30
2017-09-19T09:56:02.660Z,97.00
2017-09-19T09:58:30.167Z,97.00
2017-09-19T10:00:57.687Z,97.80
2017-09-19T10:03:25.191Z,97.90
2017-09-19T10:05:52.712Z,96.90
2017-09-19T10:08:20.207Z,96.60
2017-09-19T10:10:48.491Z,97.20
2017-09-19T10:13:16.005Z,97.20
2017-09-19T10:15:43.532Z,97.20
2017-09-19T10:18:11.828Z,96.60
2017-09-19T10:20:39.367Z,96.60
2017-09-19T10:23:07.660Z,96.30
2017-09-19T10:25:35.165Z,96.20
2017-09-19T10:28:02.779Z,95.50
2017-09-19T10:30:30.326Z,96.00
2017-09-19T10:32:57.886Z,96.50
2017-09-19T10:35:25.392Z,95.60
2017-09-19T10:37:52.912Z,95.40
2017-09-19T10:40:21.303Z,95.80
2017-09-19T10:42:48.827Z,96.10
2017-09-19T10:45:17.096Z,95.30
2017-09-19T10:47:46.200Z,95.40
2017-09-19T10:50:14.471Z,96.20
2017-09-19T10:52:42.767Z,96.60
2017-09-19T10:55:10.271Z,96.50
2017-09-19T10:57:37.787Z,95.80
2017-09-19T11:00:05.291Z,96.20
2017-09-19T11:02:32.894Z,95.60
2017-09-19T11:05:00.459Z,96.10
2017-09-19T11:07:27.977Z,96.70
2017-09-19T11:09:56.448Z,96.40
2017-09-19T11:12:23.962Z,96.40
2017-09-19T11:14:51.526Z,95.80
2017-09-19T11:17:19.046Z,95.50
2017-09-19T11:19:48.043Z,97.30
2017-09-19T11:22:17.055Z,96.10
2017-09-19T11:24:44.572Z,96.00
2017-09-19T11:27:12.901Z,96.00
2017-09-19T11:29:40.419Z,95.90
2017-09-19T11:32:07.920Z,95.90
2017-09-19T11:34:35.444Z,96.70
2017-09-19T11:37:03.711Z,96.80
2017-09-19T11:39:31.231Z,96.80
2017-09-19T11:41:58.731Z,96.20
2017-09-19T11:44:27.130Z,96.60
2017-09-19T11:46:54.635Z,96.20
2017-09-19T11:49:22.155Z,95.40
2017-09-19T11:51:49.659Z,95.30
2017-09-19T11:54:17.179Z,94.10
2017-09-19T11:56:44.711Z,93.90
2017-09-19T11:59:13.003Z,94.10
2017-09-19T12:01:40.560Z,94.10
2017-09-19T12:04:08.079Z,94.40
2017-09-19T12:06:35.583Z,93.50
2017-09-19T12:09:03.099Z,92.90
2017-09-19T12:11:30.603Z,93.80
2017-09-19T12:13:58.164Z,93.50
2017-09-19T12:16:25.676Z,94.40
2017-09-19T12:18:53.190Z,93.20
2017-09-19T12:21:20.691Z,94.10
2017-09-19T12:23:48.213Z,92.70
2017-09-19T12:26:15.715Z,92.30
2017-09-19T12:28:43.998Z,92.90
2017-09-19T12:31:12.264Z,92.40
2017-09-19T12:33:40.556Z,92.50
2017-09-19T12:36:08.822Z,92.40
2017-09-19T12:38:37.119Z,92.50
2017-09-19T12:41:04.623Z,92.50
2017-09-19T12:43:32.139Z,92.80
2017-09-19T12:45:59.645Z,92.80
2017-09-19T12:48:27.280Z,93.00
2017-09-19T12:50:54.815Z,93.50
2017-09-19T12:53:22.324Z,93.30
2017-09-19T12:55:49.837Z,93.10
2017-09-19T12:58:17.344Z,92.40
2017-09-19T13:00:44.867Z,92.30
2017-09-19T13:03:12.370Z,92.00
2017-09-19T13:05:39.887Z,92.40
2017-09-19T13:08:07.394Z,93.10
2017-09-19T13:10:35.679Z,93.40
2017-09-19T13:13:03.948Z,93.90
2017-09-19T13:15:32.419Z,94.20
2017-09-19T13:17:59.920Z,94.20
2017-09-19T13:20:27.438Z,94.50
2017-09-19T13:22:55.739Z,94.80
2017-09-19T13:25:23.264Z,94.80
2017-09-19T13:27:50.860Z,94.80
2017-09-19T13:30:18.387Z,95.10
2017-09-19T13:32:57.955Z,94.80
2017-09-19T13:35:25.575Z,94.50
2017-09-19T13:37:54.074Z,95.30
2017-09-19T13:40:22.363Z,96.10
2017-09-19T13:42:50.652Z,96.20
2017-09-19T13:45:18.183Z,96.50
2017-09-19T13:47:47.078Z,96.00
2017-09-19T13:50:15.379Z,96.10
2017-09-19T13:52:43.003Z,96.10
2017-09-19T13:55:10.543Z,95.90
2017-09-19T13:57:38.048Z,95.10
2017-09-19T14:00:05.552Z,95.60
2017-09-19T14:02:33.081Z,95.70
2017-09-19T14:05:00.582Z,95.50
2017-09-19T14:07:28.104Z,95.60
2017-09-19T14:09:55.695Z,95.40
2017-09-19T14:12:23.299Z,95.70
2017-09-19T14:14:50.794Z,95.40
2017-09-19T14:17:19.151Z,95.30
2017-09-19T14:19:46.656Z,95.40
2017-09-19T14:22:14.187Z,95.20
2017-09-19T14:24:41.696Z,95.40
2017-09-19T14:27:10.091Z,95.30
2017-09-19T14:29:37.592Z,95.20
2017-09-19T14:32:05.110Z,94.80
2017-09-19T14:34:32.611Z,94.40
2017-09-19T14:37:00.132Z,94.50
2017-09-19T14:39:27.630Z,94.70
2017-09-19T14:41:55.973Z,94.70
2017-09-19T14:44:23.573Z,94.20
2017-09-19T14:46:51.095Z,94.10
2017-09-19T14:49:18.647Z,93.80
2017-09-19T14:51:46.175Z,94.20
2017-09-19T14:54:14.449Z,92.20
2017-09-19T14:56:42.739Z,92.00
2017-09-19T14:59:10.241Z,92.00
2017-09-19T15:01:37.759Z,92.20
2017-09-19T15:04:05.262Z,92.50
2017-09-19T15:06:32.768Z,92.50
2017-09-19T15:09:01.134Z,92.60
2017-09-19T15:11:29.807Z,92.90
2017-09-19T15:13:57.503Z,93.30
2017-09-19T15:16:25.006Z,92.80
2017-09-19T15:18:52.627Z,92.30
2017-09-19T15:21:20.180Z,92.40
2017-09-19T15:23:47.700Z,92.70
2017-09-19T15:26:15.967Z,91.40
2017-09-19T15:28:44.263Z,88.80
2017-09-19T15:31:13.255Z,85.70
2017-09-19T15:33:41.544Z,84.00
2017-09-19T15:36:09.811Z,83.30
2017-09-19T15:38:38.095Z,79.10
2017-09-19T15:41:06.363Z,79.10
2017-09-19T15:43:34.647Z,77.90
2017-09-19T15:46:02.931Z,78.00
2017-09-19T15:48:30.492Z,78.10
2017-09-19T15:50:58.003Z,81.80
2017-09-19T15:53:25.529Z,86.40
2017-09-19T15:55:53.063Z,87.20
2017-09-19T15:58:20.588Z,88.80
2017-09-19T16:00:48.807Z,87.30
2017-09-19T16:03:17.159Z,88.70
2017-09-19T16:05:45.427Z,89.30
2017-09-19T16:08:13.851Z,90.10
2017-09-19T16:10:41.355Z,90.00
2017-09-19T16:13:08.894Z,90.80
2017-09-19T16:15:36.403Z,91.30
2017-09-19T16:18:03.914Z,91.90
2017-09-19T16:20:31.431Z,92.60
2017-09-19T16:22:58.935Z,92.80
2017-09-19T16:25:26.457Z,92.70
2017-09-19T16:27:53.963Z,92.80
2017-09-19T16:30:21.479Z,92.90
2017-09-19T16:32:48.987Z,92.60
2017-09-19T16:35:17.295Z,92.80
2017-09-19T16:37:44.800Z,92.80
2017-09-19T16:40:12.319Z,93.20
2017-09-19T16:42:39.859Z,93.30
2017-09-19T16:45:08.135Z,93.70
2017-09-19T16:47:35.642Z,94.00
2017-09-19T16:50:03.158Z,94.20
2017-09-19T16:52:30.711Z,94.20
2017-09-19T16:54:58.231Z,94.30
2017-09-19T16:57:25.824Z,94.90
2017-09-19T16:59:53.343Z,94.60
2017-09-19T17:02:20.863Z,94.50
2017-09-19T17:04:48.359Z,94.60
2017-09-19T17:07:16.649Z,94.90
2017-09-19T17:09:44.152Z,94.80
2017-09-19T17:12:11.675Z,95.00
2017-09-19T17:14:39.952Z,95.30
2017-09-19T17:17:08.243Z,95.50
2017-09-19T17:19:35.753Z,95.50
2017-09-19T17:22:03.363Z,95.60
2017-09-19T17:24:30.931Z,95.90
2017-09-19T17:26:58.488Z,96.10
2017-09-19T17:29:26.159Z,96.30
2017-09-19T17:31:54.319Z,96.30
2017-09-19T17:34:21.859Z,96.30
2017-09-19T17:36:50.151Z,96.90
2017-09-19T17:39:17.663Z,96.90
2017-09-19T17:41:45.235Z,97.10
2017-09-19T17:44:12.735Z,97.20
2017-09-19T17:46:40.256Z,97.40
2017-09-19T17:49:07.763Z,97.50
2017-09-19T17:51:35.312Z,98.20
2017-09-19T17:54:02.816Z,97.90
2017-09-19T17:56:30.319Z,97.90
2017-09-19T17:58:57.844Z,97.90
2017-09-19T18:01:25.343Z,98.00
2017-09-19T18:03:52.867Z,97.70
2017-09-19T18:06:21.134Z,97.60
2017-09-19T18:08:48.651Z,97.60
2017-09-19T18:11:16.161Z,97.70
2017-09-19T18:13:44.448Z,97.80
2017-09-19T18:16:12.730Z,97.90
2017-09-19T18:18:40.308Z,97.80
2017-09-19T18:21:07.812Z,98.00
2017-09-19T18:23:36.103Z,98.10
2017-09-19T18:26:04.374Z,98.00
2017-09-19T18:28:31.962Z,98.00
2017-09-19T18:30:59.473Z,98.10
2017-09-19T18:33:26.992Z,97.90
2017-09-19T18:35:54.500Z,97.90
2017-09-19T18:38:22.023Z,98.00
2017-09-19T18:40:49.551Z,97.90
2017-09-19T18:43:17.075Z,98.00
2017-09-19T18:45:44.580Z,98.00
2017-09-19T18:48:12.103Z,97.90
2017-09-19T18:50:40.373Z,98.20
2017-09-19T18:53:07.962Z,98.20
2017-09-19T18:55:35.476Z,98.30
2017-09-19T18:58:03.007Z,98.50
2017-09-19T19:00:30.510Z,98.60
2017-09-19T19:02:58.810Z,98.60
2017-09-19T19:05:27.151Z,98.90
2017-09-19T19:07:54.651Z,98.90
2017-09-19T19:10:22.216Z,98.90
2017-09-19T19:12:49.780Z,99.00
2017-09-19T19:15:17.299Z,99.00
2017-09-19T19:17:45.567Z,99.30
2017-09-19T19:20:13.889Z,99.30
2017-09-19T19:22:41.436Z,99.30
2017-09-19T19:25:08.960Z,99.30
2017-09-19T19:27:36.464Z,99.40
2017-09-19T19:30:04.011Z,99.30
2017-09-19T19:32:31.567Z,99.30
2017-09-19T19:34:59.083Z,99.30
2017-09-19T19:37:27.300Z,99.40
2017-09-19T19:39:54.819Z,99.20
2017-09-19T19:42:23.095Z,99.20
2017-09-19T19:44:50.696Z,99.20
2017-09-19T19:47:18.198Z,99.20
2017-09-19T19:49:45.759Z,99.30
2017-09-19T19:52:13.280Z,99.10
2017-09-19T19:54:40.779Z,99.10
2017-09-19T19:57:09.019Z,99.30
2017-09-19T19:59:37.394Z,99.30
2017-09-19T20:02:04.965Z,99.50
2017-09-19T20:04:32.467Z,99.60
2017-09-19T20:06:59.982Z,99.60
2017-09-19T20:09:28.122Z,99.80
2017-09-19T20:11:55.744Z,99.80
2017-09-19T20:14:23.447Z,99.70
2017-09-19T20:16:50.963Z,99.70
2017-09-19T20:19:19.247Z,99.60
2017-09-19T20:21:46.857Z,99.60
2017-09-19T20:24:14.939Z,99.50
2017-09-19T20:26:42.459Z,99.60
2017-09-19T20:29:10.734Z,99.90
2017-09-19T20:31:39.023Z,99.80
2017-09-19T20:34:06.526Z,99.80
2017-09-19T20:36:34.052Z,99.70
2017-09-19T20:39:01.580Z,99.70
2017-09-19T20:41:29.873Z,99.80
2017-09-19T20:43:57.436Z,99.80
2017-09-19T20:46:25.043Z,99.70
2017-09-19T20:48:52.564Z,99.80
2017-09-19T20:51:20.066Z,99.80
2017-09-19T20:53:47.587Z,99.60
2017-09-19T20:56:15.123Z,99.70
2017-09-19T20:58:42.651Z,99.60
2017-09-19T21:01:10.156Z,99.50
2017-09-19T21:03:43.421Z,99.80
2017-09-19T21:06:17.371Z,99.60
2017-09-19T21:08:50.494Z,99.60
2017-09-19T21:11:23.807Z,99.90
2017-09-19T21:13:57.713Z,99.30
2017-09-19T21:16:31.735Z,99.40
2017-09-19T21:19:05.667Z,98.80
2017-09-19T21:21:33.167Z,98.80
2017-09-19T21:24:00.683Z,98.60
2017-09-19T21:26:28.232Z,98.20
2017-09-19T21:28:55.755Z,98.20
2017-09-19T21:31:23.251Z,98.80
2017-09-19T21:33:50.771Z,98.20
2017-09-19T21:36:18.270Z,98.50
2017-09-19T21:38:45.786Z,98.20
2017-09-19T21:41:13.291Z,98.00
2017-09-19T21:43:40.811Z,98.60
2017-09-19T21:46:09.074Z,98.20
2017-09-19T21:48:36.591Z,98.20
2017-09-19T21:51:04.087Z,98.20
2017-09-19T21:53:31.688Z,97.90
2017-09-19T21:55:59.242Z,97.90
2017-09-19T21:58:26.820Z,97.90
2017-09-19T22:00:54.352Z,98.20
2017-09-19T22:03:21.867Z,97.90
2017-09-19T22:05:49.390Z,98.10
2017-09-19T22:08:16.899Z,98.00
2017-09-19T22:10:44.518Z,98.00
2017-09-19T22:13:12.022Z,98.10
2017-09-19T22:15:39.539Z,98.00
2017-09-19T22:18:07.043Z,98.00
2017-09-19T22:20:35.326Z,98.40
2017-09-19T22:23:03.591Z,98.20
2017-09-19T22:25:31.180Z,98.20
2017-09-19T22:27:58.687Z,98.20
2017-09-19T22:30:26.319Z,98.20
2017-09-19T22:32:53.815Z,98.30
2017-09-19T22:35:21.339Z,98.50
2017-09-19T22:37:48.878Z,98.40
2017-09-19T22:40:16.404Z,98.40
2017-09-19T22:42:44.680Z,98.20
2017-09-19T22:45:12.983Z,98.60
2017-09-19T22:47:40.487Z,98.60
2017-09-19T22:50:08.005Z,98.40
2017-09-19T22:52:35.508Z,99.10
2017-09-19T22:55:03.114Z,99.10
2017-09-19T22:57:30.671Z,98.40
2017-09-19T22:59:58.187Z,98.50
2017-09-19T23:02:26.511Z,99.00
2017-09-19T23:04:54.027Z,99.40
2017-09-19T23:07:21.528Z,98.80
2017-09-19T23:09:49.048Z,98.50
2017-09-19T23:12:16.551Z,98.90
2017-09-19T23:14:44.199Z,98.90
2017-09-19T23:17:11.709Z,99.20
2017-09-19T23:19:39.215Z,99.20
2017-09-19T23:22:06.745Z,99.00
2017-09-19T23:24:34.519Z,98.50
2017-09-19T23:27:02.813Z,98.90
2017-09-19T23:29:30.320Z,98.90
2017-09-19T23:31:57.842Z,98.70
2017-09-19T23:34:25.467Z,98.70
2017-09-19T23:36:53.755Z,98.90
2017-09-19T23:39:22.019Z,98.60
2017-09-19T23:41:50.308Z,98.70
2017-09-19T23:44:18.600Z,99.20
2017-09-19T23:46:46.947Z,99.10
2017-09-19T23:49:15.218Z,99.00
2017-09-19T23:51:43.508Z,99.40
2017-09-19T23:54:11.783Z,99.10
2017-09-19T23:56:40.071Z,99.30
2017-09-19T23:59:07.579Z,99.70
